sensor_id;sensor_type;location;lat;lon;timestamp;P1;durP1;ratioP1;P2;durP2;ratioP2
68523;SDS011;55524;51.380;13.372;2023-04-16T00:02:19;19.85;;;13.45;;
68523;SDS011;55524;51.380;13.372;2023-04-16T00:04:46;19.48;;;13.05;;
68523;SDS011;55524;51.380;13.372;2023-04-16T00:07:12;16.75;;;12.10;;
68523;SDS011;55524;51.380;13.372;2023-04-16T00:09:38;19.25;;;12.82;;
68523;SDS011;55524;51.380;13.372;2023-04-16T00:12:05;18.10;;;12.68;;
68523;SDS011;55524;51.380;13.372;2023-04-16T00:14:31;19.90;;;13.07;;
68523;SDS011;55524;51.380;13.372;2023-04-16T00:16:57;20.10;;;12.95;;
68523;SDS011;55524;51.380;13.372;2023-04-16T00:19:24;20.02;;;13.50;;
68523;SDS011;55524;51.380;13.372;2023-04-16T00:21:50;19.67;;;12.52;;
68523;SDS011;55524;51.380;13.372;2023-04-16T00:24:16;18.33;;;12.95;;
68523;SDS011;55524;51.380;13.372;2023-04-16T00:26:43;19.00;;;12.65;;
68523;SDS011;55524;51.380;13.372;2023-04-16T00:29:10;17.40;;;12.95;;
68523;SDS011;55524;51.380;13.372;2023-04-16T00:31:37;20.85;;;12.95;;
68523;SDS011;55524;51.380;13.372;2023-04-16T00:34:03;19.10;;;13.05;;
68523;SDS011;55524;51.380;13.372;2023-04-16T00:36:29;19.73;;;13.82;;
68523;SDS011;55524;51.380;13.372;2023-04-16T00:38:55;18.67;;;13.20;;
68523;SDS011;55524;51.380;13.372;2023-04-16T00:41:22;20.33;;;12.27;;
68523;SDS011;55524;51.380;13.372;2023-04-16T00:43:48;17.45;;;12.60;;
68523;SDS011;55524;51.380;13.372;2023-04-16T00:46:15;23.75;;;13.40;;
68523;SDS011;55524;51.380;13.372;2023-04-16T00:48:43;16.50;;;12.30;;
68523;SDS011;55524;51.380;13.372;2023-04-16T00:51:10;18.58;;;12.52;;
68523;SDS011;55524;51.380;13.372;2023-04-16T00:53:37;17.10;;;12.52;;
68523;SDS011;55524;51.380;13.372;2023-04-16T00:56:04;17.45;;;12.77;;
68523;SDS011;55524;51.380;13.372;2023-04-16T00:58:31;18.65;;;12.75;;
68523;SDS011;55524;51.380;13.372;2023-04-16T01:00:59;18.73;;;12.38;;
68523;SDS011;55524;51.380;13.372;2023-04-16T01:03:29;21.92;;;12.88;;
68523;SDS011;55524;51.380;13.372;2023-04-16T01:06:03;15.20;;;11.52;;
68523;SDS011;55524;51.380;13.372;2023-04-16T01:08:30;13.35;;;10.32;;
68523;SDS011;55524;51.380;13.372;2023-04-16T01:10:57;14.27;;;10.23;;
68523;SDS011;55524;51.380;13.372;2023-04-16T01:13:23;15.68;;;10.60;;
68523;SDS011;55524;51.380;13.372;2023-04-16T01:15:50;18.10;;;11.82;;
68523;SDS011;55524;51.380;13.372;2023-04-16T01:18:19;16.23;;;10.32;;
68523;SDS011;55524;51.380;13.372;2023-04-16T01:20:47;15.73;;;11.18;;
68523;SDS011;55524;51.380;13.372;2023-04-16T01:23:14;16.05;;;10.75;;
68523;SDS011;55524;51.380;13.372;2023-04-16T01:25:42;11.07;;;9.20;;
68523;SDS011;55524;51.380;13.372;2023-04-16T01:28:09;10.50;;;8.55;;
68523;SDS011;55524;51.380;13.372;2023-04-16T01:30:36;14.38;;;9.75;;
68523;SDS011;55524;51.380;13.372;2023-04-16T01:33:02;13.50;;;9.65;;
68523;SDS011;55524;51.380;13.372;2023-04-16T01:35:28;16.90;;;10.57;;
68523;SDS011;55524;51.380;13.372;2023-04-16T01:37:55;12.52;;;9.57;;
68523;SDS011;55524;51.380;13.372;2023-04-16T01:40:21;15.95;;;10.07;;
68523;SDS011;55524;51.380;13.372;2023-04-16T01:42:47;16.42;;;11.27;;
68523;SDS011;55524;51.380;13.372;2023-04-16T01:45:15;14.88;;;11.38;;
68523;SDS011;55524;51.380;13.372;2023-04-16T01:47:41;18.35;;;11.00;;
68523;SDS011;55524;51.380;13.372;2023-04-16T01:50:08;18.88;;;12.70;;
68523;SDS011;55524;51.380;13.372;2023-04-16T01:52:35;19.02;;;12.35;;
68523;SDS011;55524;51.380;13.372;2023-04-16T01:55:01;17.95;;;12.80;;
68523;SDS011;55524;51.380;13.372;2023-04-16T01:57:27;18.27;;;12.73;;
68523;SDS011;55524;51.380;13.372;2023-04-16T01:59:54;20.88;;;12.90;;
68523;SDS011;55524;51.380;13.372;2023-04-16T02:02:20;20.63;;;13.65;;
68523;SDS011;55524;51.380;13.372;2023-04-16T02:04:51;19.98;;;13.88;;
68523;SDS011;55524;51.380;13.372;2023-04-16T02:07:18;20.02;;;13.38;;
68523;SDS011;55524;51.380;13.372;2023-04-16T02:09:44;20.50;;;14.02;;
68523;SDS011;55524;51.380;13.372;2023-04-16T02:12:11;19.17;;;13.57;;
68523;SDS011;55524;51.380;13.372;2023-04-16T02:14:37;19.92;;;13.63;;
68523;SDS011;55524;51.380;13.372;2023-04-16T02:17:03;22.08;;;14.27;;
68523;SDS011;55524;51.380;13.372;2023-04-16T02:19:30;20.70;;;13.85;;
68523;SDS011;55524;51.380;13.372;2023-04-16T02:21:56;19.10;;;12.60;;
68523;SDS011;55524;51.380;13.372;2023-04-16T02:24:22;17.55;;;11.68;;
68523;SDS011;55524;51.380;13.372;2023-04-16T02:26:48;17.23;;;12.05;;
68523;SDS011;55524;51.380;13.372;2023-04-16T02:29:15;18.10;;;12.27;;
68523;SDS011;55524;51.380;13.372;2023-04-16T02:31:41;16.60;;;11.77;;
68523;SDS011;55524;51.380;13.372;2023-04-16T02:34:08;17.08;;;10.27;;
68523;SDS011;55524;51.380;13.372;2023-04-16T02:36:34;13.43;;;10.07;;
68523;SDS011;55524;51.380;13.372;2023-04-16T02:39:01;13.02;;;9.98;;
68523;SDS011;55524;51.380;13.372;2023-04-16T02:41:27;16.40;;;11.00;;
68523;SDS011;55524;51.380;13.372;2023-04-16T02:43:53;15.07;;;10.77;;
68523;SDS011;55524;51.380;13.372;2023-04-16T02:46:20;14.20;;;9.98;;
68523;SDS011;55524;51.380;13.372;2023-04-16T02:48:46;17.63;;;11.20;;
68523;SDS011;55524;51.380;13.372;2023-04-16T02:51:13;21.27;;;12.50;;
68523;SDS011;55524;51.380;13.372;2023-04-16T02:53:39;20.65;;;12.90;;
68523;SDS011;55524;51.380;13.372;2023-04-16T02:56:09;21.38;;;13.27;;
68523;SDS011;55524;51.380;13.372;2023-04-16T02:58:36;22.58;;;12.80;;
68523;SDS011;55524;51.380;13.372;2023-04-16T03:01:03;18.90;;;12.88;;
68523;SDS011;55524;51.380;13.372;2023-04-16T03:03:29;19.85;;;13.32;;
68523;SDS011;55524;51.380;13.372;2023-04-16T03:05:56;23.17;;;13.75;;
68523;SDS011;55524;51.380;13.372;2023-04-16T03:08:22;23.17;;;12.73;;
68523;SDS011;55524;51.380;13.372;2023-04-16T03:10:48;22.70;;;14.52;;
68523;SDS011;55524;51.380;13.372;2023-04-16T03:13:14;24.48;;;14.52;;
68523;SDS011;55524;51.380;13.372;2023-04-16T03:15:46;22.88;;;14.40;;
68523;SDS011;55524;51.380;13.372;2023-04-16T03:18:15;25.20;;;14.75;;
68523;SDS011;55524;51.380;13.372;2023-04-16T03:20:41;21.90;;;14.45;;
68523;SDS011;55524;51.380;13.372;2023-04-16T03:23:08;22.90;;;14.75;;
68523;SDS011;55524;51.380;13.372;2023-04-16T03:25:34;22.08;;;15.32;;
68523;SDS011;55524;51.380;13.372;2023-04-16T03:28:00;22.10;;;14.60;;
68523;SDS011;55524;51.380;13.372;2023-04-16T03:30:27;21.90;;;14.88;;
68523;SDS011;55524;51.380;13.372;2023-04-16T03:32:54;22.38;;;15.25;;
68523;SDS011;55524;51.380;13.372;2023-04-16T03:35:20;23.80;;;16.45;;
68523;SDS011;55524;51.380;13.372;2023-04-16T03:37:46;22.05;;;14.98;;
68523;SDS011;55524;51.380;13.372;2023-04-16T03:40:14;22.67;;;15.30;;
68523;SDS011;55524;51.380;13.372;2023-04-16T03:42:40;23.98;;;15.55;;
68523;SDS011;55524;51.380;13.372;2023-04-16T03:45:06;22.55;;;15.30;;
68523;SDS011;55524;51.380;13.372;2023-04-16T03:47:33;22.80;;;15.75;;
68523;SDS011;55524;51.380;13.372;2023-04-16T03:49:59;23.80;;;15.73;;
68523;SDS011;55524;51.380;13.372;2023-04-16T03:52:26;20.25;;;14.70;;
68523;SDS011;55524;51.380;13.372;2023-04-16T03:54:52;23.85;;;16.02;;
68523;SDS011;55524;51.380;13.372;2023-04-16T03:57:18;25.13;;;15.45;;
68523;SDS011;55524;51.380;13.372;2023-04-16T03:59:44;23.85;;;16.05;;
68523;SDS011;55524;51.380;13.372;2023-04-16T04:02:11;23.20;;;15.18;;
68523;SDS011;55524;51.380;13.372;2023-04-16T04:04:37;22.52;;;15.35;;
68523;SDS011;55524;51.380;13.372;2023-04-16T04:07:03;20.42;;;15.18;;
68523;SDS011;55524;51.380;13.372;2023-04-16T04:09:29;21.33;;;14.68;;
68523;SDS011;55524;51.380;13.372;2023-04-16T04:11:56;17.95;;;13.88;;
68523;SDS011;55524;51.380;13.372;2023-04-16T04:14:22;21.90;;;14.50;;
68523;SDS011;55524;51.380;13.372;2023-04-16T04:16:49;21.25;;;15.32;;
68523;SDS011;55524;51.380;13.372;2023-04-16T04:19:15;21.73;;;15.82;;
68523;SDS011;55524;51.380;13.372;2023-04-16T04:21:41;21.75;;;15.20;;
68523;SDS011;55524;51.380;13.372;2023-04-16T04:24:07;19.48;;;14.05;;
68523;SDS011;55524;51.380;13.372;2023-04-16T04:26:34;20.90;;;14.82;;
68523;SDS011;55524;51.380;13.372;2023-04-16T04:29:00;21.70;;;14.90;;
68523;SDS011;55524;51.380;13.372;2023-04-16T04:31:26;21.77;;;15.95;;
68523;SDS011;55524;51.380;13.372;2023-04-16T04:33:53;28.40;;;17.02;;
68523;SDS011;55524;51.380;13.372;2023-04-16T04:36:19;29.70;;;18.17;;
68523;SDS011;55524;51.380;13.372;2023-04-16T04:38:45;29.42;;;17.60;;
68523;SDS011;55524;51.380;13.372;2023-04-16T04:41:12;28.15;;;17.40;;
68523;SDS011;55524;51.380;13.372;2023-04-16T04:43:38;28.88;;;17.67;;
68523;SDS011;55524;51.380;13.372;2023-04-16T04:46:04;26.25;;;16.40;;
68523;SDS011;55524;51.380;13.372;2023-04-16T04:48:30;25.33;;;16.10;;
68523;SDS011;55524;51.380;13.372;2023-04-16T04:50:57;22.80;;;14.48;;
68523;SDS011;55524;51.380;13.372;2023-04-16T04:53:23;22.98;;;15.25;;
68523;SDS011;55524;51.380;13.372;2023-04-16T04:55:49;27.80;;;16.58;;
68523;SDS011;55524;51.380;13.372;2023-04-16T04:58:16;24.95;;;15.65;;
68523;SDS011;55524;51.380;13.372;2023-04-16T05:00:42;24.77;;;15.50;;
68523;SDS011;55524;51.380;13.372;2023-04-16T05:03:09;27.90;;;16.90;;
68523;SDS011;55524;51.380;13.372;2023-04-16T05:05:36;23.30;;;15.02;;
68523;SDS011;55524;51.380;13.372;2023-04-16T05:08:04;25.58;;;16.42;;
68523;SDS011;55524;51.380;13.372;2023-04-16T05:10:30;22.23;;;14.52;;
68523;SDS011;55524;51.380;13.372;2023-04-16T05:12:56;23.52;;;15.18;;
68523;SDS011;55524;51.380;13.372;2023-04-16T05:15:23;22.67;;;15.80;;
68523;SDS011;55524;51.380;13.372;2023-04-16T05:17:49;24.95;;;15.95;;
68523;SDS011;55524;51.380;13.372;2023-04-16T05:20:15;25.27;;;15.68;;
68523;SDS011;55524;51.380;13.372;2023-04-16T05:22:41;25.48;;;16.77;;
68523;SDS011;55524;51.380;13.372;2023-04-16T05:25:08;28.50;;;17.80;;
68523;SDS011;55524;51.380;13.372;2023-04-16T05:27:35;28.65;;;17.90;;
68523;SDS011;55524;51.380;13.372;2023-04-16T05:30:02;28.00;;;16.77;;
68523;SDS011;55524;51.380;13.372;2023-04-16T05:32:28;28.77;;;17.45;;
68523;SDS011;55524;51.380;13.372;2023-04-16T05:34:55;28.35;;;17.88;;
68523;SDS011;55524;51.380;13.372;2023-04-16T05:37:21;29.63;;;17.58;;
68523;SDS011;55524;51.380;13.372;2023-04-16T05:39:47;32.70;;;18.83;;
68523;SDS011;55524;51.380;13.372;2023-04-16T05:42:13;32.97;;;19.08;;
68523;SDS011;55524;51.380;13.372;2023-04-16T05:44:40;32.22;;;19.48;;
68523;SDS011;55524;51.380;13.372;2023-04-16T05:47:06;30.17;;;19.77;;
68523;SDS011;55524;51.380;13.372;2023-04-16T05:49:33;30.15;;;19.48;;
68523;SDS011;55524;51.380;13.372;2023-04-16T05:52:01;32.00;;;19.70;;
68523;SDS011;55524;51.380;13.372;2023-04-16T05:54:28;27.90;;;18.52;;
68523;SDS011;55524;51.380;13.372;2023-04-16T05:56:55;27.15;;;17.20;;
68523;SDS011;55524;51.380;13.372;2023-04-16T05:59:21;27.05;;;17.55;;
68523;SDS011;55524;51.380;13.372;2023-04-16T06:01:47;23.95;;;16.58;;
68523;SDS011;55524;51.380;13.372;2023-04-16T06:04:14;26.30;;;16.88;;
68523;SDS011;55524;51.380;13.372;2023-04-16T06:06:40;26.13;;;17.42;;
68523;SDS011;55524;51.380;13.372;2023-04-16T06:09:06;28.00;;;17.98;;
68523;SDS011;55524;51.380;13.372;2023-04-16T06:11:33;27.15;;;17.38;;
68523;SDS011;55524;51.380;13.372;2023-04-16T06:13:59;27.48;;;17.70;;
68523;SDS011;55524;51.380;13.372;2023-04-16T06:16:25;25.73;;;17.60;;
68523;SDS011;55524;51.380;13.372;2023-04-16T06:18:52;27.58;;;16.90;;
68523;SDS011;55524;51.380;13.372;2023-04-16T06:21:18;26.10;;;17.20;;
68523;SDS011;55524;51.380;13.372;2023-04-16T06:23:44;27.70;;;17.48;;
68523;SDS011;55524;51.380;13.372;2023-04-16T06:26:11;26.73;;;18.00;;
68523;SDS011;55524;51.380;13.372;2023-04-16T06:28:37;28.05;;;17.70;;
68523;SDS011;55524;51.380;13.372;2023-04-16T06:31:03;26.42;;;17.48;;
68523;SDS011;55524;51.380;13.372;2023-04-16T06:33:29;28.58;;;18.15;;
68523;SDS011;55524;51.380;13.372;2023-04-16T06:35:56;26.63;;;17.08;;
68523;SDS011;55524;51.380;13.372;2023-04-16T06:38:22;29.08;;;17.35;;
68523;SDS011;55524;51.380;13.372;2023-04-16T06:40:48;29.05;;;17.40;;
68523;SDS011;55524;51.380;13.372;2023-04-16T06:43:15;25.30;;;16.65;;
68523;SDS011;55524;51.380;13.372;2023-04-16T06:45:42;28.25;;;16.88;;
68523;SDS011;55524;51.380;13.372;2023-04-16T06:48:08;28.92;;;17.50;;
68523;SDS011;55524;51.380;13.372;2023-04-16T06:50:34;29.70;;;17.75;;
68523;SDS011;55524;51.380;13.372;2023-04-16T06:53:01;27.17;;;17.08;;
68523;SDS011;55524;51.380;13.372;2023-04-16T06:55:27;26.42;;;17.15;;
68523;SDS011;55524;51.380;13.372;2023-04-16T06:57:54;25.58;;;16.58;;
68523;SDS011;55524;51.380;13.372;2023-04-16T07:00:20;23.45;;;16.23;;
68523;SDS011;55524;51.380;13.372;2023-04-16T07:02:46;25.27;;;16.67;;
68523;SDS011;55524;51.380;13.372;2023-04-16T07:05:13;25.73;;;17.38;;
68523;SDS011;55524;51.380;13.372;2023-04-16T07:07:39;28.27;;;17.30;;
68523;SDS011;55524;51.380;13.372;2023-04-16T07:10:05;33.15;;;24.88;;
68523;SDS011;55524;51.380;13.372;2023-04-16T07:12:32;25.73;;;16.58;;
68523;SDS011;55524;51.380;13.372;2023-04-16T07:14:58;26.08;;;16.27;;
68523;SDS011;55524;51.380;13.372;2023-04-16T07:17:24;21.55;;;14.68;;
68523;SDS011;55524;51.380;13.372;2023-04-16T07:19:51;24.40;;;16.20;;
68523;SDS011;55524;51.380;13.372;2023-04-16T07:22:17;24.75;;;16.25;;
68523;SDS011;55524;51.380;13.372;2023-04-16T07:24:44;22.75;;;13.75;;
68523;SDS011;55524;51.380;13.372;2023-04-16T07:27:10;21.10;;;14.30;;
68523;SDS011;55524;51.380;13.372;2023-04-16T07:29:37;22.58;;;13.70;;
68523;SDS011;55524;51.380;13.372;2023-04-16T07:32:03;19.75;;;13.95;;
68523;SDS011;55524;51.380;13.372;2023-04-16T07:34:29;22.88;;;14.85;;
68523;SDS011;55524;51.380;13.372;2023-04-16T07:36:56;19.88;;;13.95;;
68523;SDS011;55524;51.380;13.372;2023-04-16T07:39:22;18.83;;;13.50;;
68523;SDS011;55524;51.380;13.372;2023-04-16T07:41:48;18.77;;;11.90;;
68523;SDS011;55524;51.380;13.372;2023-04-16T07:44:15;17.48;;;11.73;;
68523;SDS011;55524;51.380;13.372;2023-04-16T07:46:41;17.13;;;12.27;;
68523;SDS011;55524;51.380;13.372;2023-04-16T07:49:07;16.20;;;11.65;;
68523;SDS011;55524;51.380;13.372;2023-04-16T07:51:33;18.13;;;12.02;;
68523;SDS011;55524;51.380;13.372;2023-04-16T07:54:00;16.65;;;11.48;;
68523;SDS011;55524;51.380;13.372;2023-04-16T07:56:26;16.58;;;10.55;;
68523;SDS011;55524;51.380;13.372;2023-04-16T07:58:53;14.60;;;10.35;;
68523;SDS011;55524;51.380;13.372;2023-04-16T08:01:19;13.32;;;9.95;;
68523;SDS011;55524;51.380;13.372;2023-04-16T08:03:46;14.35;;;10.23;;
68523;SDS011;55524;51.380;13.372;2023-04-16T08:06:12;12.98;;;9.45;;
68523;SDS011;55524;51.380;13.372;2023-04-16T08:08:38;13.05;;;9.52;;
68523;SDS011;55524;51.380;13.372;2023-04-16T08:11:04;12.93;;;10.35;;
68523;SDS011;55524;51.380;13.372;2023-04-16T08:13:31;12.63;;;9.57;;
68523;SDS011;55524;51.380;13.372;2023-04-16T08:15:57;16.02;;;9.52;;
68523;SDS011;55524;51.380;13.372;2023-04-16T08:18:23;11.85;;;9.20;;
68523;SDS011;55524;51.380;13.372;2023-04-16T08:20:50;10.57;;;8.07;;
68523;SDS011;55524;51.380;13.372;2023-04-16T08:23:16;11.43;;;8.57;;
68523;SDS011;55524;51.380;13.372;2023-04-16T08:25:42;16.25;;;8.48;;
68523;SDS011;55524;51.380;13.372;2023-04-16T08:28:08;11.68;;;8.60;;
68523;SDS011;55524;51.380;13.372;2023-04-16T08:30:35;9.45;;;7.63;;
68523;SDS011;55524;51.380;13.372;2023-04-16T08:33:01;16.65;;;7.68;;
68523;SDS011;55524;51.380;13.372;2023-04-16T08:35:27;9.70;;;7.90;;
68523;SDS011;55524;51.380;13.372;2023-04-16T08:37:54;12.10;;;8.82;;
68523;SDS011;55524;51.380;13.372;2023-04-16T08:40:22;16.55;;;9.52;;
68523;SDS011;55524;51.380;13.372;2023-04-16T08:42:54;16.27;;;9.93;;
68523;SDS011;55524;51.380;13.372;2023-04-16T08:45:22;12.32;;;9.18;;
68523;SDS011;55524;51.380;13.372;2023-04-16T08:47:51;17.98;;;9.05;;
68523;SDS011;55524;51.380;13.372;2023-04-16T08:50:21;17.13;;;8.40;;
68523;SDS011;55524;51.380;13.372;2023-04-16T08:52:50;14.07;;;7.97;;
68523;SDS011;55524;51.380;13.372;2023-04-16T08:55:31;17.00;;;8.20;;
68523;SDS011;55524;51.380;13.372;2023-04-16T08:58:02;13.43;;;9.25;;
68523;SDS011;55524;51.380;13.372;2023-04-16T09:00:38;10.50;;;8.90;;
68523;SDS011;55524;51.380;13.372;2023-04-16T09:03:06;13.05;;;8.00;;
68523;SDS011;55524;51.380;13.372;2023-04-16T09:05:34;39.97;;;10.68;;
68523;SDS011;55524;51.380;13.372;2023-04-16T09:08:01;19.85;;;7.63;;
68523;SDS011;55524;51.380;13.372;2023-04-16T09:10:29;18.80;;;8.05;;
68523;SDS011;55524;51.380;13.372;2023-04-16T09:12:55;22.00;;;7.20;;
68523;SDS011;55524;51.380;13.372;2023-04-16T09:15:22;14.65;;;5.50;;
68523;SDS011;55524;51.380;13.372;2023-04-16T09:17:52;23.80;;;6.50;;
68523;SDS011;55524;51.380;13.372;2023-04-16T09:20:20;27.60;;;8.15;;
68523;SDS011;55524;51.380;13.372;2023-04-16T09:22:46;6.18;;;5.57;;
68523;SDS011;55524;51.380;13.372;2023-04-16T09:25:13;39.53;;;8.57;;
68523;SDS011;55524;51.380;13.372;2023-04-16T09:27:40;9.93;;;6.47;;
68523;SDS011;55524;51.380;13.372;2023-04-16T09:30:23;11.68;;;6.85;;
68523;SDS011;55524;51.380;13.372;2023-04-16T09:32:51;28.95;;;7.45;;
68523;SDS011;55524;51.380;13.372;2023-04-16T09:35:46;9.52;;;6.38;;
68523;SDS011;55524;51.380;13.372;2023-04-16T09:38:14;9.82;;;6.68;;
68523;SDS011;55524;51.380;13.372;2023-04-16T09:40:41;5.70;;;5.10;;
68523;SDS011;55524;51.380;13.372;2023-04-16T09:43:11;13.05;;;5.25;;
68523;SDS011;55524;51.380;13.372;2023-04-16T09:46:14;6.22;;;4.57;;
68523;SDS011;55524;51.380;13.372;2023-04-16T09:48:35;4.97;;;4.47;;
68523;SDS011;55524;51.380;13.372;2023-04-16T09:51:04;8.27;;;4.35;;
68523;SDS011;55524;51.380;13.372;2023-04-16T09:53:31;12.75;;;5.18;;
68523;SDS011;55524;51.380;13.372;2023-04-16T09:55:58;11.23;;;5.47;;
68523;SDS011;55524;51.380;13.372;2023-04-16T09:58:30;11.73;;;4.43;;
68523;SDS011;55524;51.380;13.372;2023-04-16T10:01:00;8.13;;;4.80;;
68523;SDS011;55524;51.380;13.372;2023-04-16T10:03:30;7.00;;;5.10;;
68523;SDS011;55524;51.380;13.372;2023-04-16T10:06:07;23.23;;;4.83;;
68523;SDS011;55524;51.380;13.372;2023-04-16T10:08:52;8.32;;;4.55;;
68523;SDS011;55524;51.380;13.372;2023-04-16T10:11:22;4.50;;;4.10;;
68523;SDS011;55524;51.380;13.372;2023-04-16T10:13:49;6.45;;;3.75;;
68523;SDS011;55524;51.380;13.372;2023-04-16T10:16:16;4.28;;;3.88;;
68523;SDS011;55524;51.380;13.372;2023-04-16T10:18:43;19.30;;;4.57;;
68523;SDS011;55524;51.380;13.372;2023-04-16T10:21:11;7.88;;;4.32;;
68523;SDS011;55524;51.380;13.372;2023-04-16T10:23:41;6.65;;;4.22;;
68523;SDS011;55524;51.380;13.372;2023-04-16T10:26:08;8.13;;;5.05;;
68523;SDS011;55524;51.380;13.372;2023-04-16T10:28:35;16.10;;;9.82;;
68523;SDS011;55524;51.380;13.372;2023-04-16T10:31:03;7.13;;;4.57;;
68523;SDS011;55524;51.380;13.372;2023-04-16T10:33:36;5.93;;;4.10;;
68523;SDS011;55524;51.380;13.372;2023-04-16T10:36:15;9.88;;;5.25;;
68523;SDS011;55524;51.380;13.372;2023-04-16T10:38:48;9.73;;;4.90;;
68523;SDS011;55524;51.380;13.372;2023-04-16T10:41:18;6.70;;;4.53;;
68523;SDS011;55524;51.380;13.372;2023-04-16T10:43:46;17.42;;;4.80;;
68523;SDS011;55524;51.380;13.372;2023-04-16T10:48:48;7.22;;;4.10;;
68523;SDS011;55524;51.380;13.372;2023-04-16T10:56:35;7.38;;;4.47;;
68523;SDS011;55524;51.380;13.372;2023-04-16T10:59:12;4.80;;;4.40;;
68523;SDS011;55524;51.380;13.372;2023-04-16T11:01:44;13.27;;;4.97;;
68523;SDS011;55524;51.380;13.372;2023-04-16T11:12:33;4.05;;;3.72;;
68523;SDS011;55524;51.380;13.372;2023-04-16T11:15:08;4.43;;;3.90;;
68523;SDS011;55524;51.380;13.372;2023-04-16T11:17:37;5.57;;;3.42;;
68523;SDS011;55524;51.380;13.372;2023-04-16T11:20:16;3.55;;;3.25;;
68523;SDS011;55524;51.380;13.372;2023-04-16T11:22:44;4.47;;;3.75;;
68523;SDS011;55524;51.380;13.372;2023-04-16T11:25:11;5.80;;;3.75;;
68523;SDS011;55524;51.380;13.372;2023-04-16T11:27:43;3.78;;;3.47;;
68523;SDS011;55524;51.380;13.372;2023-04-16T11:30:12;3.70;;;3.40;;
68523;SDS011;55524;51.380;13.372;2023-04-16T11:32:38;3.33;;;3.03;;
68523;SDS011;55524;51.380;13.372;2023-04-16T11:35:15;4.75;;;3.50;;
68523;SDS011;55524;51.380;13.372;2023-04-16T11:37:42;9.18;;;3.60;;
68523;SDS011;55524;51.380;13.372;2023-04-16T11:40:10;3.72;;;3.20;;
68523;SDS011;55524;51.380;13.372;2023-04-16T11:42:37;2.95;;;2.75;;
68523;SDS011;55524;51.380;13.372;2023-04-16T11:45:06;4.00;;;3.05;;
68523;SDS011;55524;51.380;13.372;2023-04-16T11:52:46;3.38;;;3.08;;
68523;SDS011;55524;51.380;13.372;2023-04-16T11:55:14;4.07;;;3.58;;
68523;SDS011;55524;51.380;13.372;2023-04-16T11:57:41;3.90;;;3.30;;
68523;SDS011;55524;51.380;13.372;2023-04-16T12:00:07;3.40;;;3.10;;
68523;SDS011;55524;51.380;13.372;2023-04-16T12:07:58;4.22;;;3.50;;
68523;SDS011;55524;51.380;13.372;2023-04-16T12:10:26;7.68;;;6.00;;
68523;SDS011;55524;51.380;13.372;2023-04-16T12:12:53;12.88;;;10.77;;
68523;SDS011;55524;51.380;13.372;2023-04-16T12:15:46;7.60;;;6.90;;
68523;SDS011;55524;51.380;13.372;2023-04-16T12:18:18;11.38;;;6.82;;
68523;SDS011;55524;51.380;13.372;2023-04-16T12:20:46;8.02;;;7.18;;
68523;SDS011;55524;51.380;13.372;2023-04-16T12:23:22;8.98;;;7.13;;
68523;SDS011;55524;51.380;13.372;2023-04-16T12:25:52;10.43;;;8.10;;
68523;SDS011;55524;51.380;13.372;2023-04-16T12:28:29;12.27;;;8.65;;
68523;SDS011;55524;51.380;13.372;2023-04-16T12:30:57;14.38;;;8.98;;
68523;SDS011;55524;51.380;13.372;2023-04-16T12:33:24;11.05;;;8.82;;
68523;SDS011;55524;51.380;13.372;2023-04-16T12:35:50;19.67;;;12.98;;
68523;SDS011;55524;51.380;13.372;2023-04-16T12:38:17;13.85;;;9.63;;
68523;SDS011;55524;51.380;13.372;2023-04-16T12:40:45;11.05;;;7.97;;
68523;SDS011;55524;51.380;13.372;2023-04-16T12:43:14;11.68;;;8.43;;
68523;SDS011;55524;51.380;13.372;2023-04-16T12:45:41;9.45;;;7.07;;
68523;SDS011;55524;51.380;13.372;2023-04-16T12:48:08;10.25;;;6.35;;
68523;SDS011;55524;51.380;13.372;2023-04-16T12:50:37;17.27;;;10.38;;
68523;SDS011;55524;51.380;13.372;2023-04-16T12:53:04;17.48;;;10.43;;
68523;SDS011;55524;51.380;13.372;2023-04-16T12:55:35;35.78;;;13.60;;
68523;SDS011;55524;51.380;13.372;2023-04-16T12:58:02;31.38;;;13.57;;
68523;SDS011;55524;51.380;13.372;2023-04-16T13:00:28;28.75;;;16.00;;
68523;SDS011;55524;51.380;13.372;2023-04-16T13:02:54;11.20;;;7.75;;
68523;SDS011;55524;51.380;13.372;2023-04-16T13:05:21;18.10;;;16.15;;
68523;SDS011;55524;51.380;13.372;2023-04-16T13:07:47;13.23;;;10.40;;
68523;SDS011;55524;51.380;13.372;2023-04-16T13:10:14;10.98;;;8.50;;
68523;SDS011;55524;51.380;13.372;2023-04-16T13:12:40;9.90;;;7.72;;
68523;SDS011;55524;51.380;13.372;2023-04-16T13:15:07;9.70;;;6.30;;
68523;SDS011;55524;51.380;13.372;2023-04-16T13:17:35;25.52;;;16.38;;
68523;SDS011;55524;51.380;13.372;2023-04-16T13:20:02;15.25;;;11.05;;
68523;SDS011;55524;51.380;13.372;2023-04-16T13:22:28;10.57;;;7.00;;
68523;SDS011;55524;51.380;13.372;2023-04-16T13:24:58;6.35;;;5.75;;
68523;SDS011;55524;51.380;13.372;2023-04-16T13:27:24;9.63;;;6.50;;
68523;SDS011;55524;51.380;13.372;2023-04-16T13:29:51;4.65;;;4.25;;
68523;SDS011;55524;51.380;13.372;2023-04-16T13:32:18;4.75;;;3.83;;
68523;SDS011;55524;51.380;13.372;2023-04-16T13:34:44;6.47;;;4.60;;
68523;SDS011;55524;51.380;13.372;2023-04-16T13:37:11;6.13;;;5.55;;
68523;SDS011;55524;51.380;13.372;2023-04-16T13:39:38;3.97;;;3.65;;
68523;SDS011;55524;51.380;13.372;2023-04-16T13:42:05;7.72;;;6.95;;
68523;SDS011;55524;51.380;13.372;2023-04-16T13:44:31;8.07;;;5.85;;
68523;SDS011;55524;51.380;13.372;2023-04-16T13:46:59;12.63;;;6.13;;
68523;SDS011;55524;51.380;13.372;2023-04-16T13:49:25;5.72;;;4.90;;
68523;SDS011;55524;51.380;13.372;2023-04-16T13:51:52;6.70;;;5.15;;
68523;SDS011;55524;51.380;13.372;2023-04-16T13:54:18;9.77;;;6.95;;
68523;SDS011;55524;51.380;13.372;2023-04-16T13:56:44;8.52;;;6.45;;
68523;SDS011;55524;51.380;13.372;2023-04-16T13:59:11;9.52;;;6.57;;
68523;SDS011;55524;51.380;13.372;2023-04-16T14:01:39;8.23;;;6.30;;
68523;SDS011;55524;51.380;13.372;2023-04-16T14:04:05;11.00;;;7.47;;
68523;SDS011;55524;51.380;13.372;2023-04-16T14:06:32;10.15;;;6.60;;
68523;SDS011;55524;51.380;13.372;2023-04-16T14:08:59;14.52;;;8.80;;
68523;SDS011;55524;51.380;13.372;2023-04-16T14:11:26;13.88;;;7.68;;
68523;SDS011;55524;51.380;13.372;2023-04-16T14:13:52;14.93;;;10.60;;
68523;SDS011;55524;51.380;13.372;2023-04-16T14:16:18;13.13;;;7.63;;
68523;SDS011;55524;51.380;13.372;2023-04-16T14:18:45;14.32;;;9.40;;
68523;SDS011;55524;51.380;13.372;2023-04-16T14:21:12;17.13;;;12.32;;
68523;SDS011;55524;51.380;13.372;2023-04-16T14:23:38;20.02;;;12.63;;
68523;SDS011;55524;51.380;13.372;2023-04-16T14:26:06;16.23;;;11.32;;
68523;SDS011;55524;51.380;13.372;2023-04-16T14:28:32;19.02;;;13.52;;
68523;SDS011;55524;51.380;13.372;2023-04-16T14:31:00;22.58;;;15.23;;
68523;SDS011;55524;51.380;13.372;2023-04-16T14:33:26;26.77;;;17.33;;
68523;SDS011;55524;51.380;13.372;2023-04-16T14:35:53;23.10;;;13.88;;
68523;SDS011;55524;51.380;13.372;2023-04-16T14:38:20;26.13;;;19.00;;
68523;SDS011;55524;51.380;13.372;2023-04-16T14:40:47;19.67;;;12.95;;
68523;SDS011;55524;51.380;13.372;2023-04-16T14:43:14;22.20;;;15.15;;
68523;SDS011;55524;51.380;13.372;2023-04-16T14:45:40;16.80;;;11.88;;